This is the latest recevied weather packets stored in our database for station/object SP6YY-15. If no packets are shown the sender has not sent any weather packets the latest 10 day(s).
| Time | Temp. | Humidity | Pressure | Rain* | Wind** | Luminosity | Snow |
|---|---|---|---|---|---|---|---|
| 1777963271 | 36.67° C | 17% | 994.6 hPa | - | - | - | - |
| 1777962971 | 35.56° C | 18% | 995.2 hPa | - | - | - | - |
| 1777962671 | 34.44° C | 19% | 995.2 hPa | - | - | - | - |
| 1777909223 | 52.78° C | 6% | 996.9 hPa | - | - | - | - |
| 1777908923 | 53.89° C | 7% | 997 hPa | - | - | - | - |
| 1777908623 | 55.56° C | 7% | 996.3 hPa | - | - | - | - |
| 1777901862 | 61.11° C | 11% | 997.4 hPa | - | - | - | - |
| 1777901561 | 60.56° C | 11% | 997.6 hPa | - | - | - | - |
| 1777901261 | 60.56° C | 11% | 997.7 hPa | - | - | - | - |
| 1777900961 | 60.56° C | 11% | 997.8 hPa | - | - | - | - |
| 1777900662 | 60° C | 11% | 997.9 hPa | - | - | - | - |
| 1777900361 | 60° C | 12% | 997.9 hPa | - | - | - | - |
| 1777900061 | 59.44° C | 12% | 998 hPa | - | - | - | - |
| 1777899761 | 58.89° C | 13% | 998.1 hPa | - | - | - | - |
| 1777899461 | 58.33° C | 13% | 998.3 hPa | - | - | - | - |
| 1777899162 | 57.78° C | 13% | 998.3 hPa | - | - | - | - |
| 1777898861 | 57.78° C | 14% | 998.4 hPa | - | - | - | - |
| 1777898561 | 56.67° C | 14% | 998.4 hPa | - | - | - | - |
| 1777898260 | 56.11° C | 15% | 998.4 hPa | - | - | - | - |
| 1777897960 | 55.56° C | 15% | 998.4 hPa | - | - | - | - |
| 1777897660 | 54.44° C | 15% | 998.3 hPa | - | - | - | - |
| 1777897360 | 53.89° C | 16% | 998.4 hPa | - | - | - | - |
| 1777897060 | 53.33° C | 16% | 998.5 hPa | - | - | - | - |
| 1777896760 | 52.78° C | 16% | 998.7 hPa | - | - | - | - |
| 1777896460 | 52.22° C | 17% | 998.8 hPa | - | - | - | - |
* Rain since midnight (hover to see other rain measurements)
** Current wind speed in m/s (hover to see current wind gust speed)